createdAt,value
2017-08-16T00:00:01.658Z,19.1
2017-08-16T00:01:03.405Z,19.1
2017-08-16T00:02:05.051Z,19.2
2017-08-16T00:03:06.736Z,19.1
2017-08-16T00:04:08.390Z,19.2
2017-08-16T00:05:10.136Z,19.1
2017-08-16T00:06:11.791Z,19.1
2017-08-16T00:07:13.603Z,19.2
2017-08-16T00:08:15.258Z,19.1
2017-08-16T00:09:17.048Z,19.1
2017-08-16T00:10:18.702Z,19.0
2017-08-16T00:11:20.415Z,19.0
2017-08-16T00:12:22.072Z,19.0
2017-08-16T00:13:23.812Z,19.0
2017-08-16T00:14:25.485Z,19.0
2017-08-16T00:15:27.189Z,19.1
2017-08-16T00:16:28.845Z,19.1
2017-08-16T00:17:30.606Z,19.0
2017-08-16T00:18:32.254Z,19.0
2017-08-16T00:19:33.972Z,19.0
2017-08-16T00:20:35.624Z,19.0
2017-08-16T00:21:37.371Z,18.9
2017-08-16T00:22:39.082Z,18.9
2017-08-16T00:23:40.795Z,18.9
2017-08-16T00:24:42.455Z,18.9
2017-08-16T00:25:44.189Z,18.8
2017-08-16T00:26:45.855Z,18.8
2017-08-16T00:27:47.538Z,18.8
2017-08-16T00:28:49.189Z,18.9
2017-08-16T00:29:50.940Z,18.9
2017-08-16T00:30:52.586Z,18.9
2017-08-16T00:31:54.324Z,19.0
2017-08-16T00:32:55.972Z,19.1
2017-08-16T00:33:57.730Z,19.1
2017-08-16T00:34:59.376Z,18.9
2017-08-16T00:36:01.110Z,19.0
2017-08-16T00:37:02.760Z,19.0
2017-08-16T00:38:04.512Z,19.0
2017-08-16T00:39:06.199Z,18.8
2017-08-16T00:40:07.899Z,18.8
2017-08-16T00:41:09.547Z,18.8
2017-08-16T00:42:12.313Z,18.8
2017-08-16T00:43:13.957Z,18.8
2017-08-16T00:44:15.717Z,18.8
2017-08-16T00:45:17.364Z,18.7
2017-08-16T00:46:19.093Z,18.7
2017-08-16T00:47:20.742Z,18.8
2017-08-16T00:48:22.490Z,18.8
2017-08-16T00:49:24.150Z,18.7
2017-08-16T00:50:25.903Z,18.7
2017-08-16T00:51:27.598Z,18.8
2017-08-16T00:52:29.270Z,18.8
2017-08-16T00:53:30.951Z,18.8
2017-08-16T00:54:32.663Z,18.8
2017-08-16T00:55:34.314Z,18.9
2017-08-16T00:56:36.058Z,18.9
2017-08-16T00:57:37.713Z,18.9
2017-08-16T00:58:39.453Z,18.8
2017-08-16T00:59:41.133Z,18.8
2017-08-16T01:00:42.886Z,18.8
2017-08-16T01:01:44.533Z,18.8
2017-08-16T01:02:46.256Z,18.8
2017-08-16T01:03:47.951Z,18.8
2017-08-16T01:04:49.633Z,18.8
2017-08-16T01:05:51.284Z,18.8
2017-08-16T01:06:53.035Z,18.8
2017-08-16T01:07:54.678Z,18.9
2017-08-16T01:08:56.409Z,18.8
2017-08-16T01:09:58.058Z,18.8
2017-08-16T01:10:59.819Z,18.8
2017-08-16T01:12:01.478Z,18.8
2017-08-16T01:13:03.201Z,18.8
2017-08-16T01:14:04.854Z,18.9
2017-08-16T01:15:06.614Z,18.9
2017-08-16T01:16:08.261Z,18.9
2017-08-16T01:17:09.972Z,18.9
2017-08-16T01:18:11.625Z,18.9
2017-08-16T01:19:13.362Z,19.0
2017-08-16T01:20:15.041Z,19.0
2017-08-16T01:21:16.772Z,19.0
2017-08-16T01:22:18.426Z,19.0
2017-08-16T01:23:20.158Z,18.9
2017-08-16T01:24:21.810Z,18.9
2017-08-16T01:25:23.554Z,18.9
2017-08-16T01:26:25.206Z,18.8
2017-08-16T01:27:26.969Z,18.8
2017-08-16T01:28:28.602Z,18.7
2017-08-16T01:29:30.355Z,18.7
2017-08-16T01:30:31.994Z,18.8
2017-08-16T01:31:33.731Z,18.7
2017-08-16T01:32:35.384Z,18.8
2017-08-16T01:33:37.128Z,18.7
2017-08-16T01:34:38.786Z,18.8
2017-08-16T01:35:40.554Z,18.8
2017-08-16T01:36:42.210Z,18.8
2017-08-16T01:37:43.872Z,18.8
2017-08-16T01:38:45.516Z,19.0
2017-08-16T01:39:47.186Z,19.0
2017-08-16T01:40:48.865Z,19.0
2017-08-16T01:41:50.606Z,19.1
2017-08-16T01:42:52.252Z,19.1
2017-08-16T01:43:53.981Z,19.0
2017-08-16T01:44:55.628Z,19.0
2017-08-16T01:45:57.373Z,19.0
2017-08-16T01:46:59.085Z,19.0
2017-08-16T01:48:00.804Z,19.1
2017-08-16T01:49:02.475Z,19.1
2017-08-16T01:50:04.159Z,19.0
2017-08-16T01:51:05.818Z,18.9
2017-08-16T01:52:07.545Z,18.9
2017-08-16T01:53:09.192Z,18.9
2017-08-16T01:54:10.956Z,18.8
2017-08-16T01:55:12.612Z,18.8
2017-08-16T01:56:14.332Z,18.8
2017-08-16T01:57:15.984Z,18.8
2017-08-16T01:58:17.716Z,18.8
2017-08-16T01:59:19.367Z,18.8
2017-08-16T02:00:21.129Z,18.8
2017-08-16T02:01:22.772Z,18.8
2017-08-16T02:02:24.507Z,18.8
2017-08-16T02:03:26.169Z,18.8
2017-08-16T02:04:27.897Z,18.8
2017-08-16T02:05:29.590Z,18.8
2017-08-16T02:06:31.291Z,18.8
2017-08-16T02:07:32.945Z,18.8
2017-08-16T02:08:34.709Z,18.9
2017-08-16T02:09:36.352Z,19.0
2017-08-16T02:10:38.075Z,19.0
2017-08-16T02:11:39.801Z,19.0
2017-08-16T02:12:41.571Z,19.1
2017-08-16T02:13:43.209Z,19.1
2017-08-16T02:14:44.963Z,19.1
2017-08-16T02:15:46.771Z,19.1
2017-08-16T02:16:48.456Z,19.1
2017-08-16T02:17:50.103Z,19.1
2017-08-16T02:18:51.865Z,19.0
2017-08-16T02:19:53.521Z,19.1
2017-08-16T02:20:55.243Z,19.0
2017-08-16T02:21:56.901Z,19.1
2017-08-16T02:22:58.623Z,19.2
2017-08-16T02:24:00.279Z,19.1
2017-08-16T02:25:02.040Z,19.2
2017-08-16T02:26:03.689Z,19.2
2017-08-16T02:27:05.470Z,19.2
2017-08-16T02:28:07.133Z,19.2
2017-08-16T02:29:08.808Z,19.3
2017-08-16T02:30:10.469Z,19.3
2017-08-16T02:31:12.220Z,19.2
2017-08-16T02:32:13.873Z,19.2
2017-08-16T02:33:15.588Z,19.3
2017-08-16T02:34:17.248Z,19.3
2017-08-16T02:35:18.979Z,19.2
2017-08-16T02:36:20.626Z,19.3
2017-08-16T02:37:22.377Z,19.3
2017-08-16T02:38:24.032Z,19.3
2017-08-16T02:39:25.824Z,19.3
2017-08-16T02:40:27.481Z,19.2
2017-08-16T02:41:29.172Z,19.1
2017-08-16T02:42:30.831Z,19.3
2017-08-16T02:43:32.549Z,19.2
2017-08-16T02:44:34.219Z,19.3
2017-08-16T02:45:35.970Z,19.2
2017-08-16T02:46:37.620Z,19.2
2017-08-16T02:47:39.352Z,19.2
2017-08-16T02:48:41.002Z,19.1
2017-08-16T02:49:42.734Z,19.1
2017-08-16T02:50:44.395Z,19.0
2017-08-16T02:51:46.118Z,19.1
2017-08-16T02:52:47.780Z,19.1
2017-08-16T02:53:49.561Z,19.1
2017-08-16T02:54:51.237Z,19.2
2017-08-16T02:55:52.909Z,19.2
2017-08-16T02:56:54.594Z,19.3
2017-08-16T02:57:56.318Z,19.2
2017-08-16T02:58:57.980Z,19.3
2017-08-16T02:59:59.709Z,19.3
2017-08-16T03:01:01.363Z,19.2
2017-08-16T03:02:03.079Z,19.3
2017-08-16T03:03:06.343Z,19.2
2017-08-16T03:04:08.001Z,19.2
2017-08-16T03:05:09.656Z,19.3
2017-08-16T03:06:11.403Z,19.2
2017-08-16T03:07:13.066Z,19.3
2017-08-16T03:08:14.787Z,19.1
2017-08-16T03:09:16.450Z,19.3
2017-08-16T03:10:18.207Z,19.2
2017-08-16T03:11:19.855Z,19.1
2017-08-16T03:12:21.584Z,19.2
2017-08-16T03:13:23.239Z,19.1
2017-08-16T03:14:24.980Z,19.2
2017-08-16T03:15:26.638Z,19.2
2017-08-16T03:16:28.385Z,19.2
2017-08-16T03:17:30.049Z,19.2
2017-08-16T03:18:31.751Z,19.2
2017-08-16T03:19:33.402Z,19.2
2017-08-16T03:20:35.159Z,19.2
2017-08-16T03:21:36.838Z,19.3
2017-08-16T03:22:38.534Z,19.2
2017-08-16T03:23:40.209Z,19.2
2017-08-16T03:24:41.930Z,19.2
2017-08-16T03:25:43.580Z,19.3
2017-08-16T03:26:45.321Z,19.2
2017-08-16T03:27:47.026Z,19.2
2017-08-16T03:28:48.735Z,19.3
2017-08-16T03:29:50.414Z,19.3
2017-08-16T03:30:52.108Z,19.3
2017-08-16T03:31:53.841Z,19.3
2017-08-16T03:32:55.657Z,19.3
2017-08-16T03:33:57.355Z,19.3
2017-08-16T03:34:59.124Z,19.3
2017-08-16T03:36:00.780Z,19.3
2017-08-16T03:37:05.394Z,19.3
2017-08-16T03:38:07.021Z,19.2
2017-08-16T03:39:08.768Z,19.3
2017-08-16T03:40:10.447Z,19.3
2017-08-16T03:41:12.161Z,19.3
2017-08-16T03:42:13.829Z,19.2
2017-08-16T03:43:15.555Z,19.3
2017-08-16T03:44:17.214Z,19.3
2017-08-16T03:45:18.941Z,19.2
2017-08-16T03:46:20.598Z,19.3
2017-08-16T03:47:22.322Z,19.2
2017-08-16T03:48:23.972Z,19.2
2017-08-16T03:49:25.621Z,19.3
2017-08-16T03:50:27.353Z,19.2
2017-08-16T03:51:29.000Z,19.2
2017-08-16T03:52:30.750Z,19.1
2017-08-16T03:53:32.457Z,19.1
2017-08-16T03:54:34.142Z,19.0
2017-08-16T03:55:35.792Z,19.0
2017-08-16T03:56:37.527Z,19.0
2017-08-16T03:57:39.182Z,18.9
2017-08-16T03:58:40.923Z,18.8
2017-08-16T03:59:42.572Z,18.8
2017-08-16T04:00:44.311Z,18.7
2017-08-16T04:01:45.970Z,18.8
2017-08-16T04:02:47.705Z,18.8
2017-08-16T04:03:49.378Z,18.7
2017-08-16T04:04:51.118Z,18.7
2017-08-16T04:05:52.842Z,18.6
2017-08-16T04:06:54.630Z,18.8
2017-08-16T04:07:56.295Z,18.6
2017-08-16T04:08:57.993Z,18.7
2017-08-16T04:09:59.686Z,18.7
2017-08-16T04:11:01.383Z,18.7
2017-08-16T04:12:03.031Z,18.7
2017-08-16T04:13:04.799Z,18.7
2017-08-16T04:14:06.467Z,18.8
2017-08-16T04:15:08.181Z,18.7
2017-08-16T04:16:09.839Z,18.7
2017-08-16T04:17:11.618Z,18.7
2017-08-16T04:18:13.265Z,18.8
2017-08-16T04:19:14.957Z,18.8
2017-08-16T04:20:16.659Z,18.7
2017-08-16T04:21:18.352Z,18.7
2017-08-16T04:22:20.021Z,18.6
2017-08-16T04:23:21.783Z,18.6
2017-08-16T04:24:23.436Z,18.7
2017-08-16T04:25:25.137Z,18.7
2017-08-16T04:26:26.791Z,18.7
2017-08-16T04:27:28.522Z,18.8
2017-08-16T04:28:30.178Z,18.7
2017-08-16T04:29:32.085Z,18.7
2017-08-16T04:30:33.741Z,18.7
2017-08-16T04:31:35.514Z,18.7
2017-08-16T04:32:37.193Z,18.7
2017-08-16T04:33:38.911Z,18.7
2017-08-16T04:34:40.604Z,18.7
2017-08-16T04:35:42.342Z,18.7
2017-08-16T04:36:44.156Z,18.7
2017-08-16T04:37:45.889Z,18.6
2017-08-16T04:38:47.565Z,18.6
2017-08-16T04:39:49.280Z,18.7
2017-08-16T04:40:50.963Z,18.6
2017-08-16T04:41:52.687Z,18.5
2017-08-16T04:42:54.353Z,18.4
2017-08-16T04:43:57.088Z,18.6
2017-08-16T04:44:58.739Z,18.5
2017-08-16T04:46:00.515Z,18.5
2017-08-16T04:47:02.232Z,18.4
2017-08-16T04:48:03.978Z,18.6
2017-08-16T04:49:05.706Z,18.6
2017-08-16T04:50:07.469Z,18.4
2017-08-16T04:51:09.141Z,18.6
2017-08-16T04:52:10.860Z,18.4
2017-08-16T04:53:12.549Z,18.5
2017-08-16T04:54:14.254Z,18.6
2017-08-16T04:55:15.965Z,18.6
2017-08-16T04:56:17.774Z,18.4
2017-08-16T04:57:19.443Z,18.4
2017-08-16T04:58:21.136Z,18.3
2017-08-16T04:59:22.807Z,18.3
2017-08-16T05:00:24.546Z,18.2
2017-08-16T05:01:26.293Z,18.3
2017-08-16T05:02:28.090Z,18.3
2017-08-16T05:03:29.784Z,18.4
2017-08-16T05:04:31.445Z,18.4
2017-08-16T05:05:34.216Z,18.3
2017-08-16T05:06:35.870Z,18.2
2017-08-16T05:07:37.607Z,18.0
2017-08-16T05:08:39.309Z,18.1
2017-08-16T05:09:55.985Z,18.1
2017-08-16T05:10:57.645Z,18.2
2017-08-16T05:12:12.065Z,18.3
2017-08-16T05:13:14.429Z,18.2
2017-08-16T05:14:21.966Z,18.4
2017-08-16T05:15:23.620Z,18.4
2017-08-16T05:16:30.981Z,18.5
2017-08-16T05:17:32.661Z,18.4
2017-08-16T05:18:35.417Z,18.5
2017-08-16T05:19:37.093Z,18.5
2017-08-16T05:20:38.822Z,18.5
2017-08-16T05:21:40.591Z,18.4
2017-08-16T05:22:44.419Z,18.5
2017-08-16T05:23:46.043Z,18.6
2017-08-16T05:24:52.450Z,18.5
2017-08-16T05:25:54.163Z,18.5
2017-08-16T05:26:57.891Z,18.6
2017-08-16T05:27:59.559Z,18.5
2017-08-16T05:29:01.303Z,18.5
2017-08-16T05:30:02.957Z,18.5
2017-08-16T06:09:55.330Z,18.7
2017-08-16T06:10:57.079Z,18.6
2017-08-16T06:11:58.729Z,18.7
2017-08-16T06:13:00.606Z,18.8
2017-08-16T06:14:02.275Z,19.0
2017-08-16T06:15:04.004Z,19.1
2017-08-16T06:16:05.724Z,19.2
2017-08-16T06:17:07.474Z,19.2
2017-08-16T06:18:09.218Z,19.2
2017-08-16T06:19:10.888Z,19.3
2017-08-16T06:20:12.621Z,19.3
2017-08-16T06:21:14.412Z,19.5
2017-08-16T06:22:16.236Z,19.5
2017-08-16T06:23:17.982Z,19.5
2017-08-16T06:24:19.670Z,19.4
2017-08-16T06:25:21.450Z,19.5
2017-08-16T06:26:23.173Z,19.5
2017-08-16T06:27:24.912Z,19.5
2017-08-16T06:28:26.634Z,19.6
2017-08-16T06:29:28.425Z,19.6
2017-08-16T06:30:30.165Z,19.6
2017-08-16T06:31:31.830Z,19.6
2017-08-16T06:32:33.554Z,19.4
2017-08-16T06:33:35.222Z,19.4
2017-08-16T06:34:36.958Z,19.4
2017-08-16T06:35:38.735Z,19.2
2017-08-16T06:36:40.404Z,19.3
2017-08-16T06:37:42.074Z,19.3
2017-08-16T06:38:43.846Z,19.3
2017-08-16T06:39:45.618Z,19.2
2017-08-16T06:40:47.299Z,19.2
2017-08-16T06:41:49.158Z,19.2
2017-08-16T06:42:50.918Z,19.4
2017-08-16T06:43:52.631Z,19.3
2017-08-16T06:44:54.395Z,19.4
2017-08-16T06:45:56.213Z,19.3
2017-08-16T06:46:57.942Z,19.4
2017-08-16T06:47:59.705Z,19.3
2017-08-16T06:49:01.453Z,19.4
2017-08-16T06:50:03.310Z,19.4
2017-08-16T06:51:05.046Z,19.3
2017-08-16T06:52:06.894Z,19.2
2017-08-16T06:53:08.633Z,19.0
2017-08-16T06:54:10.337Z,18.8
2017-08-16T06:55:12.104Z,18.8
2017-08-16T06:56:13.888Z,18.6
2017-08-16T06:57:15.623Z,18.6
2017-08-16T06:58:17.294Z,18.7
2017-08-16T06:59:18.990Z,18.6
2017-08-16T07:00:20.726Z,18.6
2017-08-16T07:01:22.491Z,18.4
2017-08-16T07:02:24.233Z,18.5
2017-08-16T07:03:26.055Z,18.5
2017-08-16T07:04:27.752Z,18.4
2017-08-16T07:05:29.551Z,18.4
2017-08-16T07:06:31.272Z,18.4
2017-08-16T07:07:33.033Z,18.4
2017-08-16T07:08:34.766Z,18.6
2017-08-16T07:09:36.536Z,18.7
2017-08-16T07:10:38.267Z,18.7
2017-08-16T07:11:39.977Z,18.6
2017-08-16T07:12:41.724Z,18.6
2017-08-16T07:13:43.591Z,18.6
2017-08-16T07:14:45.252Z,18.6
2017-08-16T07:15:47.098Z,18.7
2017-08-16T07:16:48.905Z,18.7
2017-08-16T07:17:50.624Z,18.8
2017-08-16T07:18:52.433Z,18.8
2017-08-16T07:19:54.101Z,18.9
2017-08-16T07:20:55.953Z,18.9
2017-08-16T07:21:57.678Z,18.8
2017-08-16T07:22:59.566Z,18.9
2017-08-16T07:24:01.325Z,19.0
2017-08-16T07:25:03.165Z,19.0
2017-08-16T07:26:04.919Z,19.0
2017-08-16T07:27:06.728Z,18.9
2017-08-16T07:28:08.414Z,19.1
2017-08-16T07:29:10.263Z,19.2
2017-08-16T07:30:12.022Z,19.1
2017-08-16T07:31:13.905Z,19.2
2017-08-16T07:32:15.680Z,19.2
2017-08-16T07:33:17.529Z,19.3
2017-08-16T07:34:19.220Z,19.3
2017-08-16T07:35:20.961Z,19.2
2017-08-16T07:36:22.672Z,19.3
2017-08-16T07:37:24.410Z,19.4
2017-08-16T07:38:26.258Z,19.3
2017-08-16T07:39:27.992Z,19.2
2017-08-16T07:40:29.854Z,19.2
2017-08-16T07:41:31.507Z,19.2
2017-08-16T07:42:33.319Z,19.2
2017-08-16T07:43:35.104Z,19.3
2017-08-16T07:44:36.874Z,19.3
2017-08-16T07:45:38.601Z,19.2
2017-08-16T07:46:40.432Z,19.3
2017-08-16T07:47:42.211Z,19.2
2017-08-16T07:48:44.031Z,19.2
2017-08-16T07:49:45.713Z,19.1
2017-08-16T07:50:47.550Z,19.1
2017-08-16T07:51:49.384Z,19.1
2017-08-16T07:52:51.148Z,19.1
2017-08-16T07:53:52.881Z,19.1
2017-08-16T07:55:06.316Z,19.1
2017-08-16T07:56:08.093Z,19.0
2017-08-16T07:57:09.830Z,19.0
2017-08-16T07:58:11.601Z,19.1
2017-08-16T07:59:13.435Z,19.1
2017-08-16T08:00:15.164Z,19.2
2017-08-16T08:01:16.976Z,19.1
2017-08-16T08:02:18.636Z,19.3
2017-08-16T08:03:20.470Z,19.3
2017-08-16T08:04:22.125Z,19.2
2017-08-16T08:05:23.868Z,19.2
2017-08-16T08:06:25.745Z,19.3
2017-08-16T08:07:27.427Z,19.4
2017-08-16T08:08:29.202Z,19.4
2017-08-16T08:09:30.938Z,19.5
2017-08-16T08:10:32.689Z,19.4
2017-08-16T08:11:34.454Z,19.4
2017-08-16T08:12:36.311Z,19.5
2017-08-16T08:13:38.082Z,19.5
2017-08-16T08:14:39.931Z,19.6
2017-08-16T08:15:41.610Z,19.6
2017-08-16T08:16:43.388Z,19.5
2017-08-16T08:17:45.161Z,19.3
2017-08-16T08:18:46.843Z,19.3
2017-08-16T08:19:48.601Z,19.4
2017-08-16T08:20:50.329Z,19.4
2017-08-16T08:21:52.068Z,19.6
2017-08-16T08:22:53.860Z,19.6
2017-08-16T08:23:55.602Z,19.6
2017-08-16T08:24:57.476Z,19.5
2017-08-16T08:25:59.162Z,19.6
2017-08-16T08:27:01.035Z,19.7
2017-08-16T08:28:02.800Z,19.7
2017-08-16T08:29:04.538Z,19.8
2017-08-16T08:30:06.300Z,19.8
2017-08-16T08:31:08.057Z,19.8
2017-08-16T08:32:09.809Z,19.8
2017-08-16T08:33:11.638Z,20.0
2017-08-16T08:34:13.323Z,19.9
2017-08-16T08:35:15.037Z,19.9
2017-08-16T08:36:16.913Z,20.0
2017-08-16T08:37:18.650Z,20.0
2017-08-16T08:38:20.477Z,19.9
2017-08-16T08:39:22.166Z,19.9
2017-08-16T08:40:23.990Z,19.8
2017-08-16T08:41:25.810Z,20.0
2017-08-16T08:42:27.554Z,20.1
2017-08-16T08:43:29.351Z,20.1
2017-08-16T08:44:31.086Z,20.2
2017-08-16T08:45:32.930Z,20.1
2017-08-16T08:46:34.656Z,20.1
2017-08-16T08:47:36.344Z,20.0
2017-08-16T08:48:38.094Z,20.0
2017-08-16T08:49:39.895Z,20.0
2017-08-16T08:50:41.754Z,20.2
2017-08-16T08:51:43.498Z,20.1
2017-08-16T08:52:45.176Z,20.1
2017-08-16T08:53:46.911Z,20.1
2017-08-16T08:54:48.738Z,20.1
2017-08-16T08:55:50.558Z,20.1
2017-08-16T08:56:52.302Z,20.1
2017-08-16T08:57:53.951Z,20.0
2017-08-16T08:58:55.735Z,20.2
2017-08-16T08:59:57.487Z,20.2
2017-08-16T09:00:59.371Z,20.3
2017-08-16T09:02:01.095Z,20.3
2017-08-16T09:03:02.982Z,20.4
2017-08-16T09:04:04.711Z,20.4
2017-08-16T09:05:06.527Z,20.4
2017-08-16T09:06:08.287Z,20.5
2017-08-16T09:07:12.163Z,20.5
2017-08-16T09:08:13.921Z,20.7
2017-08-16T09:09:15.697Z,20.8
2017-08-16T09:10:17.436Z,20.8
2017-08-16T09:11:19.263Z,21.0
2017-08-16T09:12:20.925Z,21.1
2017-08-16T09:13:22.638Z,21.4
2017-08-16T09:14:24.403Z,21.5
2017-08-16T09:15:26.138Z,21.6
2017-08-16T09:16:27.901Z,21.8
2017-08-16T09:17:29.628Z,21.7
2017-08-16T09:18:31.409Z,21.8
2017-08-16T09:19:33.172Z,21.8
2017-08-16T09:20:35.005Z,21.8
2017-08-16T09:21:36.716Z,21.8
2017-08-16T09:22:38.502Z,21.8
2017-08-16T09:23:40.271Z,21.9
2017-08-16T09:24:41.997Z,21.9
2017-08-16T09:25:43.728Z,22.0
2017-08-16T09:26:46.516Z,22.0
2017-08-16T09:27:48.227Z,22.1
2017-08-16T09:28:49.991Z,22.0
2017-08-16T09:29:51.768Z,22.1
2017-08-16T09:30:53.571Z,22.2
2017-08-16T09:31:55.322Z,22.2
2017-08-16T09:32:57.062Z,22.2
2017-08-16T09:33:58.806Z,22.3
2017-08-16T09:35:00.577Z,22.4
2017-08-16T09:36:02.302Z,22.3
2017-08-16T09:37:04.063Z,22.4
2017-08-16T09:38:05.797Z,22.4
2017-08-16T09:39:07.554Z,22.3
2017-08-16T09:40:09.291Z,22.1
2017-08-16T09:41:11.032Z,22.0
2017-08-16T09:42:12.686Z,22.0
2017-08-16T09:43:14.548Z,22.0
2017-08-16T09:44:16.276Z,22.0
2017-08-16T09:45:18.056Z,22.2
2017-08-16T09:46:21.303Z,22.1
2017-08-16T09:47:23.081Z,22.0
2017-08-16T09:48:24.944Z,22.0
2017-08-16T09:49:26.752Z,22.0
2017-08-16T09:50:28.501Z,22.0
2017-08-16T09:51:30.289Z,22.1
2017-08-16T09:52:32.012Z,22.0
2017-08-16T09:53:33.780Z,22.1
2017-08-16T09:54:35.495Z,22.2
2017-08-16T09:55:37.266Z,22.4
2017-08-16T09:56:40.842Z,22.3
2017-08-16T09:57:42.550Z,22.4
2017-08-16T09:58:44.364Z,22.4
2017-08-16T09:59:47.823Z,22.4
2017-08-16T10:00:51.310Z,22.4
2017-08-16T10:01:54.858Z,22.4
2017-08-16T10:02:56.539Z,22.4
2017-08-16T10:03:58.312Z,22.4
2017-08-16T10:05:00.039Z,22.5
2017-08-16T10:06:01.814Z,22.6
2017-08-16T10:07:03.473Z,22.8
2017-08-16T10:08:05.256Z,22.9
2017-08-16T10:09:07.043Z,23.0
2017-08-16T10:10:08.740Z,23.2
2017-08-16T10:11:10.498Z,23.3
2017-08-16T10:12:12.157Z,23.5
2017-08-16T10:13:13.938Z,23.5
2017-08-16T10:14:15.709Z,23.6
2017-08-16T10:15:17.516Z,23.8
2017-08-16T10:16:19.270Z,23.9
2017-08-16T10:17:21.121Z,23.9
2017-08-16T10:18:22.885Z,24.0
2017-08-16T10:19:24.617Z,24.1
2017-08-16T10:20:26.833Z,24.1
2017-08-16T10:21:28.802Z,24.1
2017-08-16T10:22:30.573Z,24.1
2017-08-16T10:23:32.312Z,24.0
2017-08-16T10:24:34.011Z,24.0
2017-08-16T10:25:35.933Z,24.0
2017-08-16T10:26:37.816Z,24.0
2017-08-16T10:27:39.730Z,24.1
2017-08-16T10:28:41.469Z,24.0
2017-08-16T10:29:43.221Z,24.1
2017-08-16T10:30:45.189Z,24.1
2017-08-16T10:31:46.910Z,24.1
2017-08-16T10:32:48.686Z,24.1
2017-08-16T10:33:50.958Z,24.1
2017-08-16T10:34:52.782Z,24.1
2017-08-16T10:35:54.537Z,24.1
2017-08-16T10:36:56.404Z,24.0
2017-08-16T10:37:58.143Z,24.1
2017-08-16T10:38:59.968Z,24.0
2017-08-16T10:40:01.824Z,24.0
2017-08-16T10:41:03.754Z,24.1
2017-08-16T10:42:05.513Z,24.1
2017-08-16T10:43:07.303Z,24.2
2017-08-16T10:44:09.373Z,24.2
2017-08-16T10:45:11.101Z,24.3
2017-08-16T10:46:12.755Z,24.4
2017-08-16T10:47:14.534Z,24.4
2017-08-16T10:48:16.290Z,24.4
2017-08-16T10:49:18.051Z,24.1
2017-08-16T10:50:19.800Z,24.1
2017-08-16T10:51:21.660Z,24.1
2017-08-16T10:52:23.397Z,24.1
2017-08-16T10:53:25.268Z,24.1
2017-08-16T10:54:27.062Z,24.1
2017-08-16T10:55:29.829Z,24.2
2017-08-16T10:56:31.580Z,24.1
2017-08-16T10:57:33.333Z,24.3
2017-08-16T10:58:35.099Z,24.4
2017-08-16T10:59:36.942Z,24.3
2017-08-16T11:00:38.683Z,24.3
2017-08-16T11:01:40.374Z,24.3
2017-08-16T11:02:42.129Z,24.3
2017-08-16T11:03:43.866Z,24.4
2017-08-16T11:04:45.619Z,24.6
2017-08-16T11:05:47.629Z,24.8
2017-08-16T11:06:49.278Z,24.9
2017-08-16T11:07:51.031Z,24.9
2017-08-16T11:08:52.692Z,24.9
2017-08-16T11:09:54.418Z,24.9
2017-08-16T11:10:56.100Z,24.8
2017-08-16T11:11:57.851Z,24.8
2017-08-16T11:12:59.682Z,24.6
2017-08-16T11:14:01.483Z,24.6
2017-08-16T11:15:03.209Z,24.4
2017-08-16T11:16:05.212Z,24.4
2017-08-16T11:17:06.876Z,24.4
2017-08-16T11:18:08.717Z,24.6
2017-08-16T11:19:10.457Z,24.7
2017-08-16T11:20:12.212Z,24.7
2017-08-16T11:21:13.936Z,24.9
2017-08-16T11:22:15.685Z,24.9
2017-08-16T11:23:17.446Z,25.1
2017-08-16T11:24:19.222Z,25.1
2017-08-16T11:25:20.965Z,25.1
2017-08-16T11:26:22.802Z,25.1
2017-08-16T11:27:24.540Z,25.2
2017-08-16T11:28:26.284Z,25.3
2017-08-16T11:29:28.601Z,25.4
2017-08-16T11:30:30.333Z,25.4
2017-08-16T11:31:32.101Z,25.5
2017-08-16T11:32:34.327Z,25.4
2017-08-16T11:33:35.967Z,25.4
2017-08-16T11:34:37.645Z,25.4
2017-08-16T11:35:39.443Z,25.4
2017-08-16T11:36:41.186Z,25.2
2017-08-16T11:37:42.842Z,25.2
2017-08-16T11:38:44.586Z,25.1
2017-08-16T11:39:46.339Z,24.9
2017-08-16T11:40:48.024Z,24.8
2017-08-16T11:41:49.781Z,24.8
2017-08-16T11:42:51.502Z,24.7
2017-08-16T11:43:53.328Z,24.6
2017-08-16T11:44:55.072Z,24.5
2017-08-16T11:45:56.794Z,24.4
2017-08-16T11:46:58.517Z,24.5
2017-08-16T11:48:00.262Z,24.8
2017-08-16T11:49:02.137Z,24.9
2017-08-16T11:50:03.878Z,25.1
2017-08-16T11:51:05.719Z,25.2
2017-08-16T11:52:07.372Z,25.1
2017-08-16T11:53:09.259Z,25.1
2017-08-16T11:54:10.980Z,25.2
2017-08-16T11:55:12.735Z,25.3
2017-08-16T11:56:14.462Z,25.3
2017-08-16T11:57:16.272Z,25.4
2017-08-16T11:58:18.019Z,25.4
2017-08-16T11:59:19.739Z,25.5
2017-08-16T12:00:21.452Z,25.6
2017-08-16T12:01:23.329Z,25.6
2017-08-16T12:02:25.081Z,25.8
2017-08-16T12:03:26.841Z,26.0
2017-08-16T12:04:28.578Z,26.1
2017-08-16T12:05:30.320Z,26.2
2017-08-16T12:06:32.061Z,26.3
2017-08-16T12:07:33.844Z,26.4
2017-08-16T12:08:35.600Z,26.4
2017-08-16T12:09:37.436Z,26.5
2017-08-16T12:10:39.096Z,26.6
2017-08-16T12:11:40.961Z,26.7
2017-08-16T12:12:42.681Z,26.7
2017-08-16T12:13:44.538Z,26.6
2017-08-16T12:14:46.318Z,26.5
2017-08-16T12:15:48.071Z,26.5
2017-08-16T12:16:49.748Z,26.4
2017-08-16T12:17:51.569Z,26.3
2017-08-16T12:18:53.258Z,26.2
2017-08-16T12:19:55.115Z,26.2
2017-08-16T12:20:56.907Z,26.1
2017-08-16T12:21:58.658Z,26.1
2017-08-16T12:23:00.873Z,25.9
2017-08-16T12:24:03.826Z,25.8
2017-08-16T12:25:05.590Z,25.9
2017-08-16T12:26:07.321Z,25.7
2017-08-16T12:27:09.081Z,25.8
2017-08-16T12:28:10.745Z,25.8
2017-08-16T12:29:12.587Z,25.7
2017-08-16T12:30:14.318Z,25.6
2017-08-16T12:31:16.108Z,25.6
2017-08-16T12:32:17.840Z,25.7
2017-08-16T12:33:19.509Z,25.7
2017-08-16T12:34:21.244Z,25.8
2017-08-16T12:35:23.012Z,25.8
2017-08-16T12:36:24.789Z,25.8
2017-08-16T12:37:26.607Z,25.8
2017-08-16T12:38:28.798Z,25.9
2017-08-16T12:39:31.520Z,25.8
2017-08-16T12:40:33.260Z,25.8
2017-08-16T12:41:34.992Z,25.7
2017-08-16T12:42:36.845Z,25.7
2017-08-16T12:43:38.608Z,25.6
2017-08-16T12:44:40.429Z,25.5
2017-08-16T12:45:42.221Z,25.5
2017-08-16T12:46:44.024Z,25.4
2017-08-16T12:47:45.728Z,25.4
2017-08-16T12:48:47.408Z,25.6
2017-08-16T12:49:49.062Z,25.6
2017-08-16T12:50:50.888Z,25.7
2017-08-16T12:51:52.615Z,25.5
2017-08-16T12:52:54.414Z,25.6
2017-08-16T12:53:56.148Z,25.7
2017-08-16T12:54:58.023Z,25.7
2017-08-16T12:55:59.769Z,25.8
2017-08-16T12:57:01.572Z,25.8
2017-08-16T12:58:03.251Z,25.9
2017-08-16T12:59:04.928Z,25.9
2017-08-16T13:00:06.626Z,26.0
2017-08-16T13:01:08.351Z,26.1
2017-08-16T13:02:10.121Z,26.3
2017-08-16T13:03:11.870Z,26.5
2017-08-16T13:04:13.592Z,26.5
2017-08-16T13:05:15.363Z,26.5
2017-08-16T13:06:17.121Z,26.4
2017-08-16T13:07:18.932Z,26.5
2017-08-16T13:08:21.891Z,26.6
2017-08-16T13:09:23.704Z,26.7
2017-08-16T13:10:25.489Z,26.7
2017-08-16T13:11:27.332Z,26.8
2017-08-16T13:12:29.169Z,26.8
2017-08-16T13:13:30.996Z,27.0
2017-08-16T13:14:32.728Z,27.0
2017-08-16T13:15:34.520Z,27.0
2017-08-16T13:16:36.190Z,27.1
2017-08-16T13:17:38.062Z,27.0
2017-08-16T13:18:39.790Z,27.0
2017-08-16T13:19:41.520Z,27.2
2017-08-16T13:20:43.241Z,27.2
2017-08-16T13:21:45.084Z,27.1
2017-08-16T13:22:46.879Z,27.1
2017-08-16T13:23:48.668Z,27.0
2017-08-16T13:24:50.358Z,27.1
2017-08-16T13:25:52.179Z,27.1
2017-08-16T13:26:53.915Z,27.2
2017-08-16T13:27:55.754Z,27.3
2017-08-16T13:28:57.510Z,27.3
2017-08-16T13:30:00.404Z,27.2
2017-08-16T13:31:03.673Z,27.3
2017-08-16T13:32:05.404Z,27.2
2017-08-16T13:33:07.171Z,27.0
2017-08-16T13:34:14.508Z,27.0
2017-08-16T13:35:16.333Z,26.8
2017-08-16T13:36:19.080Z,26.6
2017-08-16T13:37:21.421Z,26.6
2017-08-16T13:38:23.160Z,26.4
2017-08-16T13:39:24.897Z,26.3
2017-08-16T13:40:27.713Z,26.2
2017-08-16T13:41:29.386Z,26.3
2017-08-16T13:42:32.022Z,26.3
2017-08-16T13:43:33.655Z,26.3
2017-08-16T13:44:35.335Z,26.4
2017-08-16T13:45:37.067Z,26.3
2017-08-16T13:46:38.991Z,26.4
2017-08-16T13:47:40.742Z,26.5
2017-08-16T13:48:42.511Z,26.5
2017-08-16T13:49:44.170Z,26.5
2017-08-16T13:50:46.173Z,26.5
2017-08-16T13:51:48.106Z,26.6
2017-08-16T13:52:50.085Z,26.7
2017-08-16T13:53:51.804Z,26.7
2017-08-16T13:54:54.735Z,26.7
2017-08-16T13:55:56.492Z,26.9
2017-08-16T13:56:58.207Z,27.0
2017-08-16T13:57:59.972Z,27.0
2017-08-16T13:59:01.652Z,27.1
2017-08-16T14:00:03.456Z,27.1
2017-08-16T14:01:05.190Z,26.9
2017-08-16T14:02:06.965Z,27.0
2017-08-16T14:03:08.740Z,27.0
2017-08-16T14:04:12.267Z,27.1
2017-08-16T14:05:14.070Z,27.1
2017-08-16T14:06:17.021Z,27.3
2017-08-16T14:07:18.781Z,27.2
2017-08-16T14:08:20.690Z,27.3
2017-08-16T14:09:22.436Z,27.3
2017-08-16T14:10:24.222Z,27.4
2017-08-16T14:11:26.291Z,27.5
2017-08-16T14:12:28.171Z,27.4
2017-08-16T14:13:29.913Z,27.5
2017-08-16T14:14:31.719Z,27.5
2017-08-16T14:15:33.543Z,27.5
2017-08-16T14:16:35.268Z,27.4
2017-08-16T14:17:37.013Z,27.3
2017-08-16T14:18:38.840Z,27.2
2017-08-16T14:19:40.579Z,26.8
2017-08-16T14:20:42.415Z,26.7
2017-08-16T14:21:44.103Z,26.7